Flint, MI (48553)

3:16 PM EST on February 12, 2016 (GMT -0500)
Dave Grand Blanc | | Change Station
CLOSE
Current Station
Personal Weather Station
Location: Grand Blanc, MI
Elevation: 797 ft
Nearby Weather Stations

Elev 797 ft 42.95 °N, 83.67 °W | Updated 0 second ago

Light Snow
Light Snow
22.9 °F
Feels Like 16 °F
N
5.4
Wind Variable Wind from WNW
Gusts 9.8 mph

Today
High -- | Low -- °F
--% Chance of Precip.
Yesterday
High -- | Low -- °F
Precip. -- in
Pressure 29.98 in
Visibility 10.0 miles
Clouds Few 2400 ft
Mostly Cloudy 4600 ft
Overcast 6000 ft
Windchill 16 °F
Dew Point 11 °F
Humidity 60%
Rainfall 0.00 in
Snow Depth Not available.
7:37 AM 6:01 PM
Waxing Crescent, 23% visible
METAR KFNT 121953Z 28020G30KT 10SM -SN FEW024 BKN046 OVC060 M06/M12 A2993 RMK AO2 PK WND 29030/1947 SNE17B48 SLP151 P0000 T10611122
Pressure 29.98 in
Visibility 10.0 miles
Clouds Few 2400 ft
Mostly Cloudy 4600 ft
Overcast 6000 ft
Windchill 16 °F
Dew Point 11 °F
Humidity 60%
Rainfall 0.00 in
Snow Depth Not available.
7:37 AM 6:01 PM
Waxing Crescent, 23% visible
METAR KFNT 121953Z 28020G30KT 10SM -SN FEW024 BKN046 OVC060 M06/M12 A2993 RMK AO2 PK WND 29030/1947 SNE17B48 SLP151 P0000 T10611122

10-Day Weather Forecast

Almanac

Astronomy

Feb. 12, 2016 Rise Set
Actual Time
Civil Twilight
Nautical Twilight
Astronomical Twilight
Moon
Length of Visible Light
Length of Day
Tomorrow will be .
, % of the Moon is Illuminated

Today's Extremes

State Highs State Lows

Community

WunderPhotos

Upload Photos

1,892,384 photos uploaded!

WunderBlog® & News

Nearby

Air Quality

  Air Quality AQ Index Pollutant
Not available.

Snow Depth

Station Depth Elevation

Earthquake Activity

City Distance Mag. Time & Date
Minimum magnitude displayed is 2.5.

Coastal Water Temperatures

Place Temperature

Stations

Nearby Weather Stations

Station Location Temp. Windchill Dew Point Humidity Wind Precip. Elev Updated Type
                   

Watches & Warnings

There are currently no watches in effect.